Aeroporto :
LOGIN :

Iscrizione | Disclaimer

   EN    FR    IT 

 










Sommario :    VFR   VFR Marginale   IFR   IFR Intensivo   IFR Molto Intensivo
Visibilità : 
Base nubi : 
>= 8 km
>= 3000ft
5 / 8 km
1000 / 3000 ft
1500m / 5 km
500 / 1000 ft
800 / 1500m
200 / 500 ft
< 800m
< 200 ft
Simboli :   Temporali  Nebbia  Neve Forte  Precipitazioni Forti  Vento > 20 kt
SIGMETs :   Varie  Temporali  Ghiacco  Turbolenza  Onda orograficha  Ceneri Vulcaniche






- Altitudine del aeroporto : 256 ft
- Codice IATA : KUN


EYKA - Kaunas

ULTIMO METAR :
  • 091750Z 29006KT 250V340 CAVOK 09/01 Q1015

METARs OBSOLETI :
  • 091720Z 29009KT 250V340 9999 FEW038 SCT061 10/02 Q1015
  • 091650Z 29009KT 250V020 CAVOK 11/02 Q1014
  • 091620Z 28007KT 250V340 9999 FEW047 SCT057 12/01 Q1014
  • 091550Z 27015KT CAVOK 12/01 Q1014
  • 091520Z 29011KT 250V340 CAVOK 13/02 Q1013

TAF TAF EYKA
Valido dal 09 a 18 ore il 10 a 18 ore UTC


091700Z 0918/1018 34010KT 9000 SCT030
TEMPO 0918/0921 5000 SHRA BKN015CB



MetMap, La meteo Aeronautica in un colpo d'occhio ! - Copyright ORBIFLY Dicembre 2007 - Disclaimer

ORBIFLY MET'MAP TEAM :

Programmazione e sviluppo : Alexandra Zaïnal
Concezione : Baudouin d'Aumeries
Aiuto per la programmazione : Marc-Olivier Méhu
Supporto tecnico e logistico : Manuel Goepfert
Aiuto per la traduzione : Arnaldo La Scala

Contatto : metmap@orbifly.com




FONTI E CREDITI :

   NOAA